Time;durP1;ratioP1;P1;durP2;ratioP2;P2;SDS_P1;SDS_P2;PMS_P1;PMS_P2;Temp;Humidity;BMP_temperature;BMP_pressure;BME280_temperature;BME280_humidity;BME280_pressure;Samples;Min_cycle;Max_cycle;Signal;HPM_P1;HPM_P2
2023/09/30 00:00:46;;;;;;;7.80;4.95;;;;;;;18.44;40.15;94289.97;5085884;28;20051;-80
2023/09/30 00:03:12;;;;;;;9.60;5.20;;;;;;;18.57;40.20;94309.53;5085956;28;20028;-80
2023/09/30 00:05:37;;;;;;;9.57;5.30;;;;;;;18.59;40.06;94304.53;5089409;28;20039;-80
2023/09/30 00:08:04;;;;;;;17.42;5.78;;;;;;;18.55;40.04;94298.31;5085150;28;20051;-80
2023/09/30 00:10:32;;;;;;;11.43;5.72;;;;;;;18.48;40.25;94292.75;5089559;27;20074;-80
2023/09/30 00:12:58;;;;;;;15.43;6.18;;;;;;;18.54;40.10;94299.44;5096063;28;20032;-81
2023/09/30 00:15:24;;;;;;;10.95;5.80;;;;;;;18.50;39.99;94295.88;5088795;27;20035;-80
2023/09/30 00:17:50;;;;;;;11.18;5.90;;;;;;;18.55;40.21;94298.31;5088843;28;20489;-80
2023/09/30 00:20:15;;;;;;;15.05;5.95;;;;;;;18.47;40.03;94280.44;5089187;28;20086;-80
2023/09/30 00:22:41;;;;;;;15.02;6.07;;;;;;;18.59;40.81;94299.16;5090186;28;20035;-80
2023/09/30 00:25:08;;;;;;;13.57;5.15;;;;;;;18.59;41.14;94307.25;5087459;28;20291;-80
2023/09/30 00:27:33;;;;;;;11.10;5.93;;;;;;;18.54;40.52;94290.56;5089478;28;20047;-80
2023/09/30 00:29:59;;;;;;;9.50;5.88;;;;;;;18.53;40.41;94284.41;5084485;28;20040;-80
2023/09/30 00:32:24;;;;;;;8.57;5.35;;;;;;;18.54;40.69;94280.56;5086610;28;20506;-80
2023/09/30 00:34:51;;;;;;;13.27;5.80;;;;;;;18.51;39.99;94278.59;5085602;28;20044;-80
2023/09/30 00:37:17;;;;;;;8.77;5.18;;;;;;;18.49;40.17;94272.78;5085559;28;20143;-81
2023/09/30 00:39:44;;;;;;;9.77;5.53;;;;;;;18.53;40.26;94276.31;5087297;28;20028;-80
2023/09/30 00:42:09;;;;;;;8.40;5.47;;;;;;;18.61;40.26;94282.66;5088960;28;20031;-81
2023/09/30 00:44:35;;;;;;;16.10;5.40;;;;;;;18.62;40.26;94293.09;5087752;27;20115;-80
2023/09/30 00:47:00;;;;;;;7.03;5.10;;;;;;;18.57;40.04;94273.72;5088442;27;20079;-80
2023/09/30 00:49:27;;;;;;;10.57;5.55;;;;;;;18.66;40.21;94283.16;5091825;28;20040;-80
2023/09/30 00:51:54;;;;;;;14.32;5.35;;;;;;;18.73;39.69;94288.72;5085635;28;20039;-80
2023/09/30 00:54:21;;;;;;;14.52;6.05;;;;;;;18.73;40.09;94294.09;5085865;27;20031;-80
2023/09/30 00:56:48;;;;;;;11.00;5.82;;;;;;;18.66;40.31;94277.78;5088700;28;20473;-80
2023/09/30 00:59:14;;;;;;;13.30;6.32;;;;;;;18.62;39.98;94271.53;5083929;28;20027;-81
2023/09/30 01:01:44;;;;;;;11.38;6.82;;;;;;;18.71;39.73;94279.44;5086215;28;20028;-80
2023/09/30 01:04:10;;;;;;;10.10;5.30;;;;;;;18.67;39.76;94273.97;5087142;28;20038;-79
2023/09/30 01:06:36;;;;;;;10.75;6.10;;;;;;;18.63;39.59;94269.59;5088022;27;20055;-81
2023/09/30 01:09:02;;;;;;;12.68;6.03;;;;;;;18.78;39.70;94285.75;5085968;28;20436;-80
2023/09/30 01:11:28;;;;;;;12.02;4.97;;;;;;;18.78;39.82;94283.06;5084597;28;20096;-80
2023/09/30 01:13:55;;;;;;;12.32;5.70;;;;;;;18.57;40.11;94257.56;5089058;28;20040;-81
2023/09/30 01:16:20;;;;;;;15.40;5.80;;;;;;;18.66;40.28;94260.84;5085239;28;20128;-80
2023/09/30 01:18:46;;;;;;;9.60;4.97;;;;;;;18.74;40.28;94279.50;5087529;27;20036;-80
2023/09/30 01:21:12;;;;;;;12.18;5.78;;;;;;;18.75;40.24;94275.69;5087756;28;20146;-80
2023/09/30 01:23:38;;;;;;;11.10;5.22;;;;;;;18.83;39.98;94277.38;5089792;28;20028;-81
2023/09/30 01:26:15;;;;;;;9.93;5.75;;;;;;;18.79;40.15;94271.16;5085200;27;20543;-80
2023/09/30 01:28:40;;;;;;;12.45;5.18;;;;;;;18.82;40.01;94275.81;5083969;28;20058;-80
2023/09/30 01:31:06;;;;;;;12.68;4.85;;;;;;;18.78;40.18;94280.34;5087077;28;20403;-79
2023/09/30 01:33:32;;;;;;;12.25;5.80;;;;;;;18.82;40.07;94277.75;5085642;28;20032;-80
2023/09/30 01:35:59;;;;;;;8.27;4.28;;;;;;;18.76;40.40;94266.47;5086319;28;20039;-81
2023/09/30 01:38:26;;;;;;;11.18;5.40;;;;;;;18.75;40.08;94269.50;5085870;27;20036;-81
2023/09/30 01:40:51;;;;;;;9.02;4.93;;;;;;;18.80;40.11;94263.84;5082796;27;20066;-80
2023/09/30 01:43:17;;;;;;;12.65;5.15;;;;;;;18.66;40.22;94247.34;5083703;28;20123;-80
2023/09/30 01:45:44;;;;;;;15.82;6.35;;;;;;;18.81;40.25;94276.97;5084480;28;20075;-79
2023/09/30 01:48:11;;;;;;;10.10;5.22;;;;;;;18.84;40.58;94278.94;5086181;28;20031;-80
2023/09/30 01:50:38;;;;;;;10.90;5.05;;;;;;;18.84;40.33;94278.94;5087943;28;20027;-80
2023/09/30 01:53:05;;;;;;;6.53;4.65;;;;;;;18.78;40.57;94268.78;5083291;28;20151;-80
2023/09/30 01:55:31;;;;;;;10.48;5.28;;;;;;;18.77;40.71;94259.94;5084249;28;20032;-80
2023/09/30 01:58:00;;;;;;;10.48;5.15;;;;;;;18.83;40.92;94282.78;5092343;28;20043;-80
2023/09/30 02:00:28;;;;;;;15.05;5.57;;;;;;;18.80;40.32;94267.31;5086032;27;20187;-80
2023/09/30 02:02:54;;;;;;;9.88;5.80;;;;;;;18.88;39.87;94274.41;5084788;28;20024;-81
2023/09/30 02:05:19;;;;;;;9.40;5.65;;;;;;;18.89;40.78;94270.59;5093398;28;20054;-80
2023/09/30 02:07:45;;;;;;;11.30;4.90;;;;;;;18.74;41.01;94257.16;5083427;28;20477;-80
2023/09/30 02:10:10;;;;;;;16.85;5.68;;;;;;;18.73;41.14;94263.69;5086348;27;20531;-80
2023/09/30 02:12:37;;;;;;;20.85;5.63;;;;;;;18.64;41.39;94252.31;5085268;28;22171;-81
2023/09/30 02:15:03;;;;;;;9.48;4.93;;;;;;;18.66;40.95;94256.22;5086943;28;20022;-80
2023/09/30 02:17:28;;;;;;;9.32;5.35;;;;;;;18.50;40.80;94231.25;5085124;28;20051;-79
2023/09/30 02:19:56;;;;;;;8.35;5.35;;;;;;;18.63;40.51;94248.81;5087111;27;20040;-80
2023/09/30 02:22:23;;;;;;;14.15;5.55;;;;;;;18.65;40.92;94254.66;5089873;28;20030;-81
2023/09/30 02:24:48;;;;;;;12.43;5.68;;;;;;;18.71;40.91;94257.88;5088475;27;20039;-80
2023/09/30 02:27:14;;;;;;;11.93;4.82;;;;;;;18.75;40.05;94270.28;5090433;28;20076;-81
2023/09/30 02:29:39;;;;;;;13.43;5.57;;;;;;;18.66;40.84;94269.69;5087278;27;20594;-80
2023/09/30 02:32:04;;;;;;;11.82;5.60;;;;;;;18.72;40.53;94268.31;5090998;28;20105;-81
2023/09/30 02:34:30;;;;;;;15.15;6.40;;;;;;;18.57;40.70;94269.13;5088785;27;20471;-79
2023/09/30 02:36:56;;;;;;;11.95;5.30;;;;;;;18.56;40.96;94266.78;5091346;28;20510;-80
2023/09/30 02:39:21;;;;;;;8.55;4.78;;;;;;;18.47;41.65;94275.06;5088382;27;20055;-81
2023/09/30 02:41:49;;;;;;;17.77;5.00;;;;;;;18.43;41.51;94274.19;5090773;28;20027;-80
2023/09/30 02:44:15;;;;;;;9.48;6.20;;;;;;;18.43;41.46;94276.88;5098081;27;20021;-80
2023/09/30 02:46:40;;;;;;;15.80;6.15;;;;;;;18.35;41.25;94272.47;5090920;27;20047;-80
2023/09/30 02:49:05;;;;;;;7.47;4.60;;;;;;;18.37;40.92;94270.22;5090083;28;20892;-78
2023/09/30 02:51:31;;;;;;;8.55;5.88;;;;;;;18.30;41.05;94259.25;5087223;28;20242;-80
2023/09/30 02:53:57;;;;;;;14.88;5.80;;;;;;;18.33;41.68;94278.19;5091794;28;20031;-80
2023/09/30 02:56:24;;;;;;;14.38;5.22;;;;;;;18.27;41.38;94262.66;5088236;28;20079;-81
2023/09/30 02:58:54;;;;;;;18.73;7.60;;;;;;;18.24;41.83;94258.75;5089012;28;20028;-81
2023/09/30 03:01:20;;;;;;;14.07;6.05;;;;;;;18.19;41.55;94255.53;5090291;28;20654;-80
2023/09/30 03:03:46;;;;;;;8.13;5.38;;;;;;;18.13;42.22;94275.81;5085124;28;20331;-80
2023/09/30 03:06:11;;;;;;;15.90;5.78;;;;;;;17.99;41.99;94239.34;5091522;28;20042;-80
2023/09/30 03:08:37;;;;;;;11.23;5.05;;;;;;;18.04;41.39;94257.13;5088079;27;20024;-80
2023/09/30 03:11:04;;;;;;;12.27;4.88;;;;;;;17.84;41.72;94269.72;5089707;27;20028;-80
2023/09/30 03:13:30;;;;;;;16.60;6.50;;;;;;;17.84;42.32;94272.41;5086787;27;20476;-80
2023/09/30 03:15:56;;;;;;;12.10;6.22;;;;;;;17.94;42.16;94269.19;5089906;27;20028;-80
2023/09/30 03:18:26;;;;;;;8.65;4.80;;;;;;;17.94;41.37;94271.91;5085354;27;20020;-80
2023/09/30 03:20:56;;;;;;;13.02;6.00;;;;;;;17.53;42.22;94227.44;5089513;28;20042;-80
2023/09/30 03:23:22;;;;;;;11.65;5.82;;;;;;;17.78;42.28;94254.19;5087028;28;20043;-81
2023/09/30 03:25:48;;;;;;;19.30;6.25;;;;;;;17.78;42.11;94257.66;5088620;28;20885;-79
2023/09/30 03:28:14;;;;;;;8.57;5.55;;;;;;;17.77;42.33;94253.41;5088328;27;20059;-80
2023/09/30 03:30:40;;;;;;;9.93;5.60;;;;;;;17.84;42.26;94258.97;5090182;27;20051;-80
2023/09/30 03:33:05;;;;;;;11.18;5.20;;;;;;;17.87;41.60;94258.25;5089181;28;20464;-80
2023/09/30 03:35:32;;;;;;;9.70;6.13;;;;;;;17.79;41.72;94253.84;5088792;27;20043;-80
2023/09/30 03:37:58;;;;;;;14.98;7.75;;;;;;;17.84;42.52;94261.66;5088802;28;20507;-80
2023/09/30 03:40:27;;;;;;;8.85;5.18;;;;;;;17.80;42.00;94255.38;5086229;28;20128;-80
2023/09/30 03:42:54;;;;;;;10.63;5.10;;;;;;;17.83;41.64;94257.38;5088611;28;20672;-80
2023/09/30 03:45:19;;;;;;;10.40;5.30;;;;;;;17.74;41.77;94251.41;5088429;28;20142;-80
2023/09/30 03:47:47;;;;;;;11.30;5.40;;;;;;;17.58;42.92;94245.25;5087274;28;20024;-80
2023/09/30 03:50:14;;;;;;;13.00;7.40;;;;;;;17.79;42.48;94264.59;5088158;28;20077;-80
2023/09/30 03:52:43;;;;;;;14.25;6.88;;;;;;;17.81;41.42;94251.56;5088616;28;20128;-80
2023/09/30 03:55:11;;;;;;;14.70;7.00;;;;;;;17.40;42.78;94249.38;5087493;27;20623;-80
2023/09/30 03:57:37;;;;;;;18.98;7.13;;;;;;;17.59;42.80;94265.63;5085410;27;20036;-80
2023/09/30 04:00:06;;;;;;;12.05;6.55;;;;;;;17.52;42.55;94230.47;5088826;28;20078;-80
2023/09/30 04:02:32;;;;;;;10.57;6.00;;;;;;;17.62;41.73;94240.72;5088324;28;20036;-80
2023/09/30 04:04:59;;;;;;;12.35;6.43;;;;;;;17.52;43.04;94265.44;5088197;28;20024;-80
2023/09/30 04:07:27;;;;;;;17.55;6.18;;;;;;;17.55;43.11;94268.22;5086993;27;20269;-80
2023/09/30 04:09:55;;;;;;;14.00;6.38;;;;;;;17.54;42.63;94250.53;5087599;28;20111;-80
2023/09/30 04:12:23;;;;;;;10.35;6.70;;;;;;;17.54;42.11;94255.13;5087533;27;20039;-80
2023/09/30 04:14:52;;;;;;;16.40;6.10;;;;;;;17.45;42.27;94249.91;5087548;28;20761;-81
2023/09/30 04:17:18;;;;;;;10.55;5.40;;;;;;;17.47;42.32;94249.56;5087156;28;20040;-80
2023/09/30 04:19:43;;;;;;;15.70;6.53;;;;;;;17.54;42.25;94265.88;5088470;27;20395;-80
2023/09/30 04:22:09;;;;;;;13.35;6.30;;;;;;;17.50;42.28;94265.03;5088749;27;20135;-80
2023/09/30 04:24:34;;;;;;;5.68;5.03;;;;;;;17.51;42.32;94278.09;5090452;27;20375;-80
2023/09/30 04:27:03;;;;;;;11.27;5.35;;;;;;;17.46;42.28;94272.19;5091418;28;20038;-80
2023/09/30 04:29:29;;;;;;;10.65;4.93;;;;;;;17.35;42.38;94268.47;5089912;27;20140;-79
2023/09/30 04:31:55;;;;;;;7.32;4.57;;;;;;;17.31;42.40;94257.59;5089162;28;20031;-80
2023/09/30 04:34:22;;;;;;;17.70;5.90;;;;;;;17.35;42.60;94280.00;5089333;27;20047;-78
2023/09/30 04:36:48;;;;;;;13.30;5.10;;;;;;;17.28;42.68;94270.94;5088521;28;20727;-80
2023/09/30 04:39:14;;;;;;;8.93;5.22;;;;;;;17.31;43.14;94289.84;5089571;28;20435;-81
2023/09/30 04:41:43;;;;;;;12.80;5.90;;;;;;;17.27;43.07;94286.28;5086951;28;20054;-80
2023/09/30 04:44:11;;;;;;;10.07;5.55;;;;;;;17.19;43.21;94271.13;5087547;28;20071;-80
2023/09/30 04:46:40;;;;;;;9.68;5.07;;;;;;;17.27;43.10;94293.56;5089113;28;20032;-80
2023/09/30 04:49:14;;;;;;;10.70;6.05;;;;;;;17.24;43.25;94291.59;5088872;28;20464;-80
2023/09/30 04:51:39;;;;;;;7.40;5.23;;;;;;;17.23;43.54;94292.69;5089062;28;20595;-80
2023/09/30 04:54:08;;;;;;;11.38;6.15;;;;;;;17.18;43.66;94281.06;5087808;28;20032;-79
2023/09/30 04:56:34;;;;;;;14.40;7.00;;;;;;;17.20;43.80;94282.66;5086991;27;20511;-80
2023/09/30 04:59:00;;;;;;;9.98;6.72;;;;;;;17.19;44.92;94303.38;5086951;28;20028;-80
2023/09/30 05:01:26;;;;;;;10.30;7.20;;;;;;;17.29;44.40;94304.78;5087947;27;20032;-80
2023/09/30 05:03:52;;;;;;;14.35;6.80;;;;;;;17.26;44.97;94313.53;5087279;27;20032;-80
2023/09/30 05:06:17;;;;;;;14.77;6.18;;;;;;;17.26;45.03;94303.53;5089904;28;20067;-80
2023/09/30 05:08:42;;;;;;;9.82;6.55;;;;;;;17.27;44.95;94304.31;5065171;28;20061;-81
2023/09/30 05:11:08;;;;;;;13.48;6.57;;;;;;;17.20;45.06;94298.78;5082272;28;20130;-79
2023/09/30 05:13:36;;;;;;;13.88;7.65;;;;;;;17.15;44.96;94295.22;5086070;28;20024;-81
2023/09/30 05:16:03;;;;;;;15.32;7.43;;;;;;;17.22;45.48;94309.94;5089148;28;20634;-80
2023/09/30 05:18:29;;;;;;;12.93;7.97;;;;;;;17.15;46.02;94281.78;5084437;28;20036;-78
2023/09/30 05:20:55;;;;;;;16.95;7.43;;;;;;;17.23;45.66;94287.31;5087206;28;20031;-80
2023/09/30 05:23:20;;;;;;;15.27;8.18;;;;;;;17.44;45.19;94314.78;5086456;28;20439;-80
2023/09/30 05:25:46;;;;;;;14.70;7.75;;;;;;;17.44;45.17;94314.78;5074943;28;20561;-81
2023/09/30 05:28:13;;;;;;;15.00;8.48;;;;;;;17.42;45.24;94309.75;5068233;28;20072;-80
2023/09/30 05:30:39;;;;;;;14.48;8.35;;;;;;;17.39;45.07;94297.00;5065198;28;20039;-80
2023/09/30 05:33:04;;;;;;;20.05;8.63;;;;;;;17.48;45.68;94310.28;5065828;28;20101;-80
2023/09/30 05:35:32;;;;;;;13.43;8.13;;;;;;;17.42;45.78;94295.53;5071899;28;20090;-80
2023/09/30 05:37:58;;;;;;;15.60;9.10;;;;;;;17.40;45.89;94284.34;5070852;28;20045;-80
2023/09/30 05:40:25;;;;;;;12.25;8.02;;;;;;;17.53;45.42;94296.59;5061710;28;20577;-80
2023/09/30 05:42:53;;;;;;;14.63;7.97;;;;;;;17.55;45.19;94300.47;5064510;28;20550;-80
2023/09/30 05:45:19;;;;;;;12.63;8.07;;;;;;;17.72;45.05;94326.28;5065172;28;20059;-80
2023/09/30 05:47:45;;;;;;;18.60;8.82;;;;;;;17.57;44.99;94295.56;5066229;28;20099;-80
2023/09/30 05:50:15;;;;;;;25.23;8.85;;;;;;;17.84;45.21;94328.13;5066000;28;20033;-79
2023/09/30 05:52:41;;;;;;;53.33;11.25;;;;;;;17.78;44.92;94329.50;5067234;28;20032;-80
2023/09/30 05:55:07;;;;;;;31.98;10.18;;;;;;;17.86;44.48;94323.94;5069483;28;20043;-79
2023/09/30 05:57:33;;;;;;;40.80;9.35;;;;;;;17.93;45.48;94337.63;5069457;28;20024;-79
2023/09/30 05:59:59;;;;;;;37.03;10.45;;;;;;;17.85;44.92;94319.69;5070493;28;20028;-79
2023/09/30 06:02:24;;;;;;;21.42;8.38;;;;;;;17.99;44.56;94328.16;5070134;28;20031;-79
2023/09/30 06:04:51;;;;;;;28.35;8.63;;;;;;;17.95;45.00;94313.03;5069877;28;20512;-79
2023/09/30 06:07:18;;;;;;;25.60;9.63;;;;;;;18.13;44.73;94326.94;5067528;28;20033;-80
2023/09/30 06:09:43;;;;;;;22.50;9.10;;;;;;;18.15;44.39;94327.38;5068226;28;20496;-79
2023/09/30 06:12:11;;;;;;;26.08;10.85;;;;;;;18.15;43.86;94308.53;5070079;28;20032;-80
2023/09/30 06:14:37;;;;;;;23.52;10.30;;;;;;;18.36;43.88;94336.75;5066995;28;20093;-79
2023/09/30 06:17:02;;;;;;;16.90;8.85;;;;;;;18.35;43.67;94335.19;5073973;28;20500;-79
2023/09/30 06:19:28;;;;;;;30.27;9.57;;;;;;;18.44;43.91;94340.38;5069074;28;20471;-79
2023/09/30 06:21:53;;;;;;;31.33;9.68;;;;;;;18.43;43.43;94330.75;5068260;28;20039;-80
2023/09/30 06:24:21;;;;;;;25.30;9.50;;;;;;;18.60;43.54;94348.44;5070379;28;20036;-79
2023/09/30 06:26:48;;;;;;;29.35;9.88;;;;;;;18.60;43.29;94333.06;5065646;28;20032;-80
2023/09/30 06:29:14;;;;;;;19.45;9.57;;;;;;;18.66;42.80;94333.56;5067373;28;20044;-79
2023/09/30 06:31:40;;;;;;;16.50;9.90;;;;;;;18.60;43.26;94316.88;5063208;28;20068;-79
2023/09/30 06:34:06;;;;;;;35.85;11.25;;;;;;;18.53;42.86;94322.09;5066085;28;20047;-79
2023/09/30 06:36:33;;;;;;;14.30;9.70;;;;;;;18.87;43.21;94358.31;5060873;28;20558;-79
2023/09/30 06:38:59;;;;;;;23.38;10.02;;;;;;;18.92;42.64;94358.03;5063904;28;20047;-78
2023/09/30 06:41:25;;;;;;;19.05;9.68;;;;;;;19.02;42.04;94359.41;5062156;28;20633;-79
2023/09/30 06:43:51;;;;;;;19.27;9.50;;;;;;;18.87;41.27;94326.75;5061723;28;20043;-80
2023/09/30 06:46:17;;;;;;;26.58;11.40;;;;;;;19.07;41.64;94353.72;5067748;28;20036;-78
2023/09/30 06:48:43;;;;;;;16.15;9.32;;;;;;;19.12;40.72;94345.34;5063862;28;20036;-79
2023/09/30 06:51:15;;;;;;;18.70;8.85;;;;;;;19.05;40.20;94329.03;5063040;28;20744;-79
2023/09/30 06:53:40;;;;;;;21.77;8.27;;;;;;;19.05;39.82;94327.13;5063652;28;20036;-79
2023/09/30 06:56:06;;;;;;;15.38;7.15;;;;;;;19.29;40.29;94356.53;5061382;28;20037;-80
2023/09/30 06:58:32;;;;;;;20.50;7.97;;;;;;;19.33;39.54;94353.88;5061249;28;20047;-80
2023/09/30 07:00:57;;;;;;;12.68;6.78;;;;;;;19.39;39.34;94357.09;5059984;28;20216;-78
2023/09/30 07:03:22;;;;;;;10.98;6.15;;;;;;;19.38;38.01;94359.00;5061398;28;20068;-80
2023/09/30 07:05:52;;;;;;;20.73;7.28;;;;;;;19.44;37.63;94368.38;5062735;28;20024;-79
2023/09/30 07:08:18;;;;;;;12.23;6.50;;;;;;;19.35;38.04;94346.22;5059006;28;20604;-79
2023/09/30 07:10:45;;;;;;;16.30;6.68;;;;;;;19.57;37.74;94380.59;5059271;28;20032;-78
2023/09/30 07:13:11;;;;;;;12.32;6.78;;;;;;;19.48;37.85;94355.75;5061979;28;20082;-80
2023/09/30 07:15:37;;;;;;;15.85;6.65;;;;;;;19.65;37.24;94366.09;5060704;28;20376;-78
2023/09/30 07:18:03;;;;;;;16.13;5.95;;;;;;;19.64;37.50;94375.34;5062441;28;20032;-80
2023/09/30 07:20:32;;;;;;;14.95;6.40;;;;;;;19.71;36.71;94361.97;5058906;28;20043;-80
2023/09/30 07:23:00;;;;;;;17.20;5.78;;;;;;;19.78;37.50;94372.13;5056679;28;20523;-77
2023/09/30 07:25:26;;;;;;;17.92;6.45;;;;;;;19.64;36.75;94352.97;5060992;28;20032;-77
2023/09/30 07:27:52;;;;;;;14.68;5.68;;;;;;;19.85;37.12;94374.94;5061006;28;20475;-79
2023/09/30 07:30:17;;;;;;;16.17;5.97;;;;;;;19.73;37.58;94357.00;5059299;28;20027;-79
2023/09/30 07:32:43;;;;;;;18.10;6.95;;;;;;;19.85;37.77;94374.94;5058119;28;20108;-79
2023/09/30 07:35:10;;;;;;;14.68;6.60;;;;;;;19.87;37.34;94369.19;5052285;28;20197;-79
2023/09/30 07:37:35;;;;;;;16.13;6.30;;;;;;;20.01;36.04;94375.63;5067946;28;20037;-80
2023/09/30 07:40:01;;;;;;;17.52;5.38;;;;;;;20.05;37.42;94378.38;5056326;28;20355;-78
2023/09/30 07:42:27;;;;;;;17.98;5.65;;;;;;;20.07;37.52;94368.03;5059457;28;20248;-78
2023/09/30 07:44:53;;;;;;;25.50;6.13;;;;;;;20.15;36.00;94369.69;5054158;28;20024;-80
2023/09/30 07:47:28;;;;;;;20.13;5.25;;;;;;;20.00;36.50;94349.00;5041514;28;21187;-80
2023/09/30 07:49:53;;;;;;;11.68;5.90;;;;;;;20.18;36.33;94371.72;5045287;28;20056;-80
2023/09/30 07:52:18;;;;;;;16.85;5.47;;;;;;;20.22;36.76;94379.88;5066460;28;20127;-80
2023/09/30 07:54:44;;;;;;;11.15;4.68;;;;;;;20.18;36.52;94366.31;5080010;28;20602;-79
2023/09/30 07:57:09;;;;;;;11.25;5.07;;;;;;;20.23;36.34;94363.31;5093414;28;20279;-79
2023/09/30 07:59:34;;;;;;;9.93;4.18;;;;;;;20.44;35.29;94373.66;5076996;28;20600;-79
2023/09/30 08:02:08;;;;;;;17.95;5.82;;;;;;;20.48;35.61;94380.69;5087415;28;20036;-79
2023/09/30 08:04:34;;;;;;;9.93;4.73;;;;;;;20.48;36.39;94366.44;5081018;28;20036;-80
2023/09/30 08:06:59;;;;;;;16.60;5.65;;;;;;;20.55;35.84;94375.41;5087410;28;20280;-81
2023/09/30 08:09:24;;;;;;;14.65;5.03;;;;;;;20.39;35.98;94339.63;5085858;28;20020;-81
2023/09/30 08:11:53;;;;;;;9.75;5.30;;;;;;;20.63;35.07;94383.66;5084952;28;20437;-81
2023/09/30 08:14:18;;;;;;;9.00;4.93;;;;;;;20.60;34.70;94371.63;5081127;28;20407;-81
2023/09/30 08:16:44;;;;;;;14.35;5.80;;;;;;;20.65;34.62;94362.44;5082915;27;20043;-80
2023/09/30 08:19:09;;;;;;;10.98;6.03;;;;;;;20.70;34.43;94379.13;5087586;28;20031;-80
2023/09/30 08:21:35;;;;;;;16.38;6.22;;;;;;;20.55;34.13;94353.78;5083742;28;20118;-81
2023/09/30 08:24:02;;;;;;;7.53;5.15;;;;;;;20.63;34.17;94356.63;5086423;28;20030;-80
2023/09/30 08:26:29;;;;;;;10.65;5.00;;;;;;;20.81;34.02;94371.16;5084681;28;20135;-80
2023/09/30 08:28:55;;;;;;;11.23;4.85;;;;;;;20.80;34.33;94364.19;5089244;28;20273;-81
2023/09/30 08:31:21;;;;;;;14.75;6.15;;;;;;;20.83;34.52;94371.56;5088377;28;20097;-80
2023/09/30 08:33:47;;;;;;;19.67;6.60;;;;;;;20.35;34.94;94365.81;5088994;28;20155;-81
2023/09/30 08:36:13;;;;;;;14.63;5.80;;;;;;;20.51;35.15;94342.16;5121462;27;20087;-81
2023/09/30 08:38:42;;;;;;;13.63;7.30;;;;;;;20.77;33.74;94371.13;5083314;28;20489;-79
2023/09/30 08:41:07;;;;;;;16.73;7.82;;;;;;;20.80;33.78;94375.78;5088844;28;20133;-81
2023/09/30 08:43:40;;;;;;;13.10;6.68;;;;;;;20.86;33.37;94366.22;5084748;28;20566;-81
2023/09/30 08:46:06;;;;;;;20.13;7.15;;;;;;;21.01;33.15;94369.94;5088000;28;20071;-80
2023/09/30 08:48:34;;;;;;;16.70;6.93;;;;;;;20.84;33.37;94360.41;5085985;27;20464;-80
2023/09/30 08:51:00;;;;;;;18.48;7.38;;;;;;;21.07;33.19;94363.06;5087957;28;20274;-80
2023/09/30 08:53:29;;;;;;;12.65;7.18;;;;;;;21.08;33.04;94353.81;5085824;28;20123;-80
2023/09/30 08:55:56;;;;;;;13.63;8.15;;;;;;;21.12;32.22;94343.81;5086557;28;20116;-80
2023/09/30 08:58:27;;;;;;;11.68;7.70;;;;;;;20.98;31.98;94360.63;5084297;28;20028;-80
2023/09/30 09:00:52;;;;;;;14.38;7.82;;;;;;;21.08;31.86;94356.50;5081873;28;20036;-80
2023/09/30 09:03:21;;;;;;;17.52;7.95;;;;;;;21.18;32.13;94355.88;5089958;28;20082;-80
2023/09/30 09:05:56;;;;;;;12.25;7.75;;;;;;;21.02;32.49;94358.00;5087802;28;20035;-80
2023/09/30 09:08:24;;;;;;;13.73;8.07;;;;;;;21.05;31.87;94346.44;5086295;28;20505;-80
2023/09/30 09:10:57;;;;;;;15.68;8.52;;;;;;;21.22;32.42;94353.97;5084984;28;20036;-78
2023/09/30 09:13:27;;;;;;;15.63;8.18;;;;;;;21.19;32.70;94348.53;5085843;28;20028;-79
2023/09/30 09:16:08;;;;;;;16.35;9.43;;;;;;;21.23;31.82;94350.13;5087865;28;20032;-80
2023/09/30 09:18:38;;;;;;;19.25;9.05;;;;;;;21.25;32.26;94337.03;5084888;28;20525;-75
2023/09/30 09:21:10;;;;;;;23.92;9.60;;;;;;;21.37;33.34;94350.31;5087280;28;20037;-73
2023/09/30 09:23:47;;;;;;;14.45;8.55;;;;;;;21.46;32.51;94342.69;5083473;28;20442;-72
2023/09/30 09:26:35;;;;;;;20.70;9.20;;;;;;;21.56;31.76;94343.97;5089066;28;20067;-73
2023/09/30 09:29:02;;;;;;;14.35;8.98;;;;;;;21.58;31.85;94340.91;5081386;27;20059;-72
2023/09/30 09:31:34;;;;;;;23.77;8.30;;;;;;;21.62;31.54;94347.91;5088901;28;20600;-73
2023/09/30 09:34:00;;;;;;;12.52;7.18;;;;;;;21.62;30.95;94349.84;5090763;28;20204;-73
2023/09/30 09:36:48;;;;;;;15.30;6.97;;;;;;;21.68;32.13;94335.63;5090903;27;20069;-73
2023/09/30 09:39:14;;;;;;;13.05;7.35;;;;;;;21.79;31.19;94325.69;5097139;28;20016;-73
2023/09/30 09:41:52;;;;;;;18.35;8.15;;;;;;;21.80;30.45;94340.00;5094250;28;20036;-73
2023/09/30 09:44:22;;;;;;;13.27;7.95;;;;;;;21.73;30.54;94340.69;5091525;27;20032;-73
2023/09/30 09:46:48;;;;;;;11.88;6.25;;;;;;;21.72;30.60;94336.44;5092186;28;20591;-73
2023/09/30 09:49:16;;;;;;;16.85;6.80;;;;;;;21.53;30.26;94325.75;5091853;27;20039;-73
2023/09/30 09:51:45;;;;;;;13.38;6.40;;;;;;;21.73;30.22;94326.38;5076511;27;20515;-72
2023/09/30 09:54:16;;;;;;;11.70;6.75;;;;;;;21.87;31.34;94335.44;5069363;28;20575;-72
2023/09/30 09:56:44;;;;;;;12.32;6.63;;;;;;;21.90;32.01;94323.09;5086581;28;20674;-72
2023/09/30 09:59:12;;;;;;;10.52;5.70;;;;;;;21.95;31.62;94328.13;5077129;27;20039;-73
2023/09/30 10:01:41;;;;;;;11.68;6.20;;;;;;;22.03;30.95;94321.66;5087687;27;20619;-72
2023/09/30 10:04:06;;;;;;;12.48;7.18;;;;;;;21.94;30.70;94318.47;5089718;28;20081;-72
2023/09/30 10:06:38;;;;;;;16.70;7.40;;;;;;;21.92;30.79;94311.88;5087213;27;20020;-73
2023/09/30 10:09:08;;;;;;;12.43;5.72;;;;;;;21.96;30.14;94327.00;5088434;28;20031;-73
2023/09/30 10:11:35;;;;;;;13.93;6.28;;;;;;;22.00;30.19;94319.69;5086907;28;20043;-73
2023/09/30 10:14:03;;;;;;;14.15;6.28;;;;;;;22.02;30.01;94314.69;5090009;27;20040;-72
2023/09/30 10:16:37;;;;;;;10.43;5.57;;;;;;;22.12;29.33;94308.56;5081745;27;20093;-73
2023/09/30 10:19:09;;;;;;;;;;;;;;;22.10;29.47;94305.44;5086995;27;20035;-73
2023/09/30 10:21:35;;;;;;;14.25;5.50;;;;;;;22.13;29.45;94306.66;5085006;27;19911;-72
2023/09/30 10:24:22;;;;;;;16.35;5.93;;;;;;;22.28;29.55;94309.13;5083756;27;20180;-73
2023/09/30 10:27:28;;;;;;;9.20;4.80;;;;;;;22.34;29.38;94308.78;5086083;28;20043;-73
2023/09/30 10:29:57;;;;;;;11.35;5.25;;;;;;;22.34;28.55;94306.84;5089321;28;20087;-72
2023/09/30 10:32:23;;;;;;;9.18;5.03;;;;;;;22.31;28.74;94283.22;5086550;27;20063;-73
2023/09/30 10:34:51;;;;;;;11.70;5.40;;;;;;;22.35;29.31;94285.94;5088282;27;20397;-72
2023/09/30 10:37:21;;;;;;;7.43;4.10;;;;;;;22.39;29.10;94289.47;5084325;28;21251;-72
2023/09/30 10:40:03;;;;;;;14.65;5.35;;;;;;;22.26;28.43;94264.59;5081755;28;20036;-72
2023/09/30 10:42:49;;;;;;;18.35;4.72;;;;;;;22.33;29.63;94285.56;5086839;27;20020;-72
2023/09/30 10:45:40;;;;;;;9.35;4.75;;;;;;;22.34;29.17;94287.88;5087404;28;20024;-73
2023/09/30 10:48:24;;;;;;;12.43;3.97;;;;;;;22.25;28.69;94282.78;5084419;28;20071;-73
2023/09/30 10:51:02;;;;;;;10.82;3.28;;;;;;;22.29;27.93;94278.16;5088500;27;20051;-72
2023/09/30 10:53:28;;;;;;;6.65;3.45;;;;;;;22.22;28.06;94272.69;5084081;28;20045;-71
2023/09/30 10:56:00;;;;;;;11.02;3.63;;;;;;;21.91;27.91;94275.09;5085972;28;20063;-72
2023/09/30 10:58:45;;;;;;;10.02;3.85;;;;;;;21.86;28.13;94276.22;5081479;28;20303;-72
2023/09/30 11:01:15;;;;;;;10.95;3.67;;;;;;;21.69;28.01;94280.34;5083889;28;20047;-72
2023/09/30 11:03:44;;;;;;;8.00;3.40;;;;;;;21.84;27.75;94281.25;5088310;28;20648;-72
2023/09/30 11:06:22;;;;;;;5.68;3.53;;;;;;;21.90;28.03;94268.94;5080753;28;20916;-72
2023/09/30 11:09:00;;;;;;;7.28;3.08;;;;;;;22.07;28.46;94272.94;5074782;28;20036;-72
2023/09/30 11:11:43;;;;;;;8.38;3.55;;;;;;;22.35;29.03;94272.38;5078075;28;20492;-72
2023/09/30 11:14:28;;;;;;;8.95;3.35;;;;;;;22.09;28.24;94267.94;5073432;28;20439;-72
2023/09/30 11:16:56;;;;;;;6.55;3.58;;;;;;;21.93;27.90;94267.41;5086288;28;20058;-72
2023/09/30 11:19:22;;;;;;;18.05;4.40;;;;;;;22.27;28.04;94272.34;5088895;28;20036;-72
2023/09/30 11:21:52;;;;;;;10.00;4.75;;;;;;;22.18;27.55;94258.31;5086683;28;20043;-72
2023/09/30 11:24:18;;;;;;;9.63;4.82;;;;;;;21.88;27.96;94261.19;5088820;28;20422;-72
2023/09/30 11:26:45;;;;;;;11.20;3.88;;;;;;;22.27;27.57;94261.50;5086626;28;20055;-72
2023/09/30 11:29:13;;;;;;;7.50;3.88;;;;;;;22.43;27.61;94265.88;5102068;27;20046;-73